createdAt,value
2019-03-29T00:01:22.575Z,99.90
2019-03-29T00:03:52.179Z,99.90
2019-03-29T00:06:21.836Z,99.90
2019-03-29T00:08:51.258Z,99.90
2019-03-29T00:11:20.808Z,99.90
2019-03-29T00:13:50.435Z,99.90
2019-03-29T00:16:19.831Z,99.90
2019-03-29T00:18:49.376Z,99.90
2019-03-29T00:21:18.923Z,99.90
2019-03-29T00:23:49.106Z,99.90
2019-03-29T00:26:18.699Z,99.90
2019-03-29T00:28:48.107Z,99.90
2019-03-29T00:31:17.441Z,99.90
2019-03-29T00:33:47.063Z,99.90
2019-03-29T00:36:16.708Z,99.90
2019-03-29T00:38:46.065Z,99.90
2019-03-29T00:41:15.718Z,99.90
2019-03-29T00:43:45.040Z,99.90
2019-03-29T00:46:14.390Z,99.90
2019-03-29T00:48:43.741Z,99.90
2019-03-29T00:51:13.107Z,99.90
2019-03-29T00:53:42.418Z,99.90
2019-03-29T00:56:12.983Z,99.90
2019-03-29T00:58:42.632Z,99.90
2019-03-29T01:01:12.038Z,99.90
2019-03-29T01:03:41.426Z,99.90
2019-03-29T01:06:10.916Z,99.90
2019-03-29T01:08:40.299Z,99.90
2019-03-29T01:11:09.882Z,99.90
2019-03-29T01:13:39.438Z,99.90
2019-03-29T01:16:08.846Z,99.90
2019-03-29T01:18:38.318Z,99.90
2019-03-29T01:21:07.740Z,99.90
2019-03-29T01:23:37.312Z,99.90
2019-03-29T01:26:06.644Z,99.90
2019-03-29T01:28:36.506Z,99.90
2019-03-29T01:31:06.174Z,99.90
2019-03-29T01:33:35.952Z,99.90
2019-03-29T01:36:05.669Z,99.90
2019-03-29T01:38:35.108Z,99.90
2019-03-29T01:41:04.510Z,99.90
2019-03-29T01:43:33.957Z,99.90
2019-03-29T01:46:03.314Z,99.90
2019-03-29T01:48:32.907Z,99.90
2019-03-29T01:51:02.290Z,99.90
2019-03-29T01:53:31.733Z,99.90
2019-03-29T01:56:01.277Z,99.90
2019-03-29T01:58:30.616Z,99.90
2019-03-29T02:01:00.399Z,99.90
2019-03-29T02:03:30.000Z,99.90
2019-03-29T02:05:59.627Z,99.90
2019-03-29T02:08:35.505Z,99.90
2019-03-29T02:11:00.336Z,99.90
2019-03-29T02:13:29.678Z,99.90
2019-03-29T02:15:59.049Z,99.90
2019-03-29T02:18:28.852Z,99.90
2019-03-29T02:20:58.190Z,99.90
2019-03-29T02:23:27.610Z,99.90
2019-03-29T02:25:57.152Z,99.90
2019-03-29T02:28:26.450Z,99.90
2019-03-29T02:30:55.763Z,99.90
2019-03-29T02:33:25.144Z,99.90
2019-03-29T02:35:54.531Z,99.90
2019-03-29T02:38:24.116Z,99.90
2019-03-29T02:40:53.535Z,99.90
2019-03-29T02:43:22.904Z,99.90
2019-03-29T02:45:53.235Z,99.90
2019-03-29T02:48:22.521Z,99.90
2019-03-29T02:50:52.089Z,99.90
2019-03-29T02:53:21.429Z,99.90
2019-03-29T02:55:50.837Z,99.90
2019-03-29T02:58:20.299Z,99.90
2019-03-29T03:00:50.225Z,99.90
2019-03-29T03:03:19.870Z,99.90
2019-03-29T03:05:49.326Z,99.90
2019-03-29T03:08:19.018Z,99.90
2019-03-29T03:10:48.749Z,99.90
2019-03-29T03:13:18.137Z,99.90
2019-03-29T03:15:47.446Z,99.90
2019-03-29T03:18:16.738Z,99.90
2019-03-29T03:20:46.045Z,99.90
2019-03-29T03:23:15.343Z,99.90
2019-03-29T03:25:44.638Z,99.90
2019-03-29T03:28:13.967Z,99.90
2019-03-29T03:30:43.331Z,99.90
2019-03-29T03:33:12.789Z,99.90
2019-03-29T03:35:42.291Z,99.90
2019-03-29T03:38:11.819Z,99.90
2019-03-29T03:40:41.212Z,99.90
2019-03-29T03:43:10.575Z,99.90
2019-03-29T03:45:40.063Z,99.90
2019-03-29T03:48:09.445Z,99.90
2019-03-29T03:50:43.205Z,99.90
2019-03-29T03:53:12.668Z,99.90
2019-03-29T03:55:43.545Z,99.90
2019-03-29T03:58:13.295Z,99.90
2019-03-29T04:00:53.241Z,99.90
2019-03-29T04:03:23.708Z,99.90
2019-03-29T04:05:53.621Z,99.90
2019-03-29T04:08:23.101Z,99.90
2019-03-29T04:10:52.500Z,99.90
2019-03-29T04:13:22.058Z,99.90
2019-03-29T04:15:51.500Z,99.90
2019-03-29T04:18:20.833Z,99.90
2019-03-29T04:20:50.819Z,99.90
2019-03-29T04:23:20.208Z,99.90
2019-03-29T04:25:49.589Z,99.90
2019-03-29T04:28:19.034Z,99.90
2019-03-29T04:30:48.578Z,99.90
2019-03-29T04:33:18.079Z,99.90
2019-03-29T04:35:47.846Z,99.90
2019-03-29T04:38:17.404Z,99.90
2019-03-29T04:40:46.731Z,99.90
2019-03-29T04:43:16.516Z,99.90
2019-03-29T04:45:45.912Z,99.90
2019-03-29T04:48:15.439Z,99.90
2019-03-29T04:50:45.005Z,99.90
2019-03-29T04:53:14.389Z,99.90
2019-03-29T04:55:43.740Z,99.90
2019-03-29T04:58:13.879Z,99.90
2019-03-29T05:00:43.656Z,99.90
2019-03-29T05:03:13.057Z,99.90
2019-03-29T05:05:45.946Z,99.90
2019-03-29T05:08:15.353Z,99.90
2019-03-29T05:10:44.833Z,99.90
2019-03-29T05:13:14.388Z,99.90
2019-03-29T05:15:46.234Z,99.90
2019-03-29T05:18:16.318Z,99.90
2019-03-29T05:20:45.730Z,99.90
2019-03-29T05:23:15.465Z,99.90
2019-03-29T05:25:45.343Z,99.90
2019-03-29T05:28:16.746Z,99.90
2019-03-29T05:30:49.664Z,99.90
2019-03-29T05:33:20.363Z,99.90
2019-03-29T05:35:50.106Z,99.90
2019-03-29T05:38:19.615Z,99.90
2019-03-29T05:40:50.111Z,99.90
2019-03-29T05:43:19.512Z,99.90
2019-03-29T05:45:51.112Z,99.90
2019-03-29T05:48:26.010Z,99.90
2019-03-29T05:50:55.489Z,99.90
2019-03-29T05:53:25.624Z,99.90
2019-03-29T05:55:56.975Z,99.90
2019-03-29T05:58:26.916Z,99.90
2019-03-29T06:00:57.772Z,99.90
2019-03-29T06:03:27.401Z,99.90
2019-03-29T06:05:56.787Z,99.90
2019-03-29T06:08:26.213Z,99.90
2019-03-29T06:10:55.905Z,99.90
2019-03-29T06:13:25.206Z,99.90
2019-03-29T06:15:54.551Z,99.90
2019-03-29T06:18:23.931Z,99.90
2019-03-29T06:20:53.398Z,99.90
2019-03-29T06:23:23.128Z,99.90
2019-03-29T06:25:52.420Z,99.90
2019-03-29T06:28:21.946Z,99.90
2019-03-29T06:30:52.675Z,99.90
2019-03-29T06:33:21.970Z,99.90
2019-03-29T06:35:51.904Z,99.90
2019-03-29T06:38:24.702Z,99.90
2019-03-29T06:41:02.825Z,99.90
2019-03-29T06:43:26.740Z,99.90
2019-03-29T06:45:59.013Z,99.90
2019-03-29T06:48:29.722Z,99.90
2019-03-29T06:50:59.447Z,99.90
2019-03-29T06:53:32.779Z,99.90
2019-03-29T06:56:02.367Z,99.90
2019-03-29T06:58:45.051Z,99.90
2019-03-29T07:01:14.500Z,99.90
2019-03-29T07:03:44.347Z,99.90
2019-03-29T07:06:13.768Z,99.90
2019-03-29T07:08:43.095Z,99.90
2019-03-29T07:11:17.524Z,99.90
2019-03-29T07:13:56.608Z,99.90
2019-03-29T07:16:14.927Z,99.90
2019-03-29T07:18:44.615Z,99.90
2019-03-29T07:21:21.314Z,99.90
2019-03-29T07:23:45.226Z,99.30
2019-03-29T07:26:14.712Z,98.40
2019-03-29T07:28:44.599Z,99.30
2019-03-29T07:31:13.955Z,98.50
2019-03-29T07:33:43.301Z,99.20
2019-03-29T07:36:12.923Z,99.90
2019-03-29T07:38:42.536Z,98.70
2019-03-29T07:41:12.123Z,99.20
2019-03-29T07:43:41.516Z,99.90
2019-03-29T07:46:10.860Z,95.20
2019-03-29T07:48:40.473Z,94.60
2019-03-29T07:51:09.850Z,91.60
2019-03-29T07:53:39.189Z,88.80
2019-03-29T07:56:08.524Z,90.50
2019-03-29T07:58:37.930Z,87.10
2019-03-29T08:01:08.365Z,84.60
2019-03-29T08:03:37.808Z,76.60
2019-03-29T08:06:07.102Z,73.40
2019-03-29T08:08:36.656Z,73.90
2019-03-29T08:11:06.248Z,79.00
2019-03-29T08:13:35.544Z,77.70
2019-03-29T08:16:06.693Z,77.20
2019-03-29T08:18:36.181Z,76.40
2019-03-29T08:21:05.642Z,75.10
2019-03-29T08:23:34.960Z,76.80
2019-03-29T08:26:04.662Z,74.90
2019-03-29T08:28:34.056Z,65.70
2019-03-29T08:31:03.619Z,70.70
2019-03-29T08:33:33.039Z,70.00
2019-03-29T08:36:02.376Z,69.00
2019-03-29T08:38:31.734Z,73.30
2019-03-29T08:41:01.036Z,74.50
2019-03-29T08:43:30.357Z,74.70
2019-03-29T08:45:59.960Z,73.70
2019-03-29T08:48:29.296Z,68.60
2019-03-29T08:50:58.912Z,70.20
2019-03-29T08:53:28.290Z,69.90
2019-03-29T08:55:57.621Z,81.40
2019-03-29T08:58:26.948Z,75.60
2019-03-29T09:00:56.483Z,73.10
2019-03-29T09:03:26.254Z,74.10
2019-03-29T09:05:55.951Z,72.80
2019-03-29T09:08:25.538Z,75.90
2019-03-29T09:10:54.875Z,77.60
2019-03-29T09:13:24.420Z,75.70
2019-03-29T09:15:54.015Z,79.50
2019-03-29T09:18:25.893Z,77.60
2019-03-29T09:20:54.579Z,76.00
2019-03-29T09:23:23.867Z,75.10
2019-03-29T09:25:53.162Z,73.30
2019-03-29T09:28:22.683Z,68.50
2019-03-29T09:30:51.979Z,66.70
2019-03-29T09:33:21.306Z,63.70
2019-03-29T09:35:50.837Z,61.10
2019-03-29T09:38:20.125Z,69.20
2019-03-29T09:40:58.317Z,65.40
2019-03-29T09:43:20.510Z,59.80
2019-03-29T09:45:49.896Z,55.90
2019-03-29T09:48:19.352Z,58.10
2019-03-29T09:50:50.698Z,61.20
2019-03-29T09:53:20.095Z,59.50
2019-03-29T09:55:49.420Z,54.20
2019-03-29T09:58:18.712Z,52.70
2019-03-29T10:00:48.733Z,50.70
2019-03-29T10:03:18.372Z,54.20
2019-03-29T10:05:47.655Z,52.30
2019-03-29T10:08:17.000Z,50.90
2019-03-29T10:10:46.495Z,43.30
2019-03-29T10:13:16.177Z,43.80
2019-03-29T10:15:45.636Z,46.30
2019-03-29T10:18:15.070Z,40.80
2019-03-29T10:20:44.377Z,42.20
2019-03-29T10:23:14.158Z,44.20
2019-03-29T10:25:43.903Z,32.50
2019-03-29T10:28:13.450Z,35.60
2019-03-29T10:30:46.517Z,34.00
2019-03-29T10:33:15.431Z,38.90
2019-03-29T10:35:52.147Z,35.90
2019-03-29T10:38:18.184Z,33.40
2019-03-29T10:40:46.972Z,37.80
2019-03-29T10:43:16.542Z,35.30
2019-03-29T10:45:45.937Z,41.50
2019-03-29T10:48:15.318Z,37.70
2019-03-29T10:50:44.985Z,41.20
2019-03-29T10:53:14.346Z,35.50
2019-03-29T10:55:43.776Z,40.50
2019-03-29T10:58:13.237Z,37.20
2019-03-29T11:00:42.995Z,43.40
2019-03-29T11:03:12.631Z,43.60
2019-03-29T11:05:41.948Z,47.80
2019-03-29T11:08:12.277Z,44.60
2019-03-29T11:10:42.346Z,50.10
2019-03-29T11:13:13.703Z,46.10
2019-03-29T11:15:43.038Z,46.20
2019-03-29T11:18:12.487Z,44.30
2019-03-29T11:20:41.836Z,38.40
2019-03-29T11:23:11.221Z,41.70
2019-03-29T11:25:40.694Z,40.80
2019-03-29T11:28:10.183Z,42.20
2019-03-29T11:30:42.422Z,45.20
2019-03-29T11:33:10.715Z,40.90
2019-03-29T11:35:40.083Z,39.20
2019-03-29T11:38:09.401Z,37.60
2019-03-29T11:40:38.716Z,33.80
2019-03-29T11:43:08.201Z,35.30
2019-03-29T11:45:37.564Z,34.00
2019-03-29T11:48:09.269Z,28.00
2019-03-29T11:50:38.090Z,35.90
2019-03-29T11:53:07.392Z,30.00
2019-03-29T11:55:36.759Z,29.90
2019-03-29T11:58:06.403Z,18.50
2019-03-29T12:00:37.321Z,18.20
2019-03-29T12:03:09.089Z,18.60
2019-03-29T12:05:38.283Z,16.00
2019-03-29T12:08:07.879Z,17.00
2019-03-29T12:10:37.819Z,24.60
2019-03-29T12:13:08.883Z,20.10
2019-03-29T12:15:39.083Z,20.60
2019-03-29T12:18:08.596Z,22.10
2019-03-29T12:20:38.510Z,18.90
2019-03-29T12:23:07.875Z,25.00
2019-03-29T12:25:37.486Z,18.10
2019-03-29T12:28:07.147Z,18.20
2019-03-29T12:30:36.730Z,24.00
2019-03-29T12:33:06.343Z,24.40
2019-03-29T12:35:35.798Z,22.40
2019-03-29T12:38:05.147Z,20.80
2019-03-29T12:40:35.065Z,20.00
2019-03-29T12:43:04.767Z,22.80
2019-03-29T12:45:34.458Z,23.80
2019-03-29T12:48:04.004Z,16.40
2019-03-29T12:50:33.259Z,20.00
2019-03-29T12:53:02.652Z,18.30
2019-03-29T12:55:32.113Z,15.20
2019-03-29T12:58:01.763Z,13.70
2019-03-29T13:00:31.458Z,14.80
2019-03-29T13:03:01.061Z,8.70
2019-03-29T13:05:30.901Z,10.60
2019-03-29T13:08:00.208Z,6.20
2019-03-29T13:10:30.743Z,3.60
2019-03-29T13:13:00.758Z,6.40
2019-03-29T13:15:30.627Z,4.70
2019-03-29T13:17:59.945Z,6.00
2019-03-29T13:20:29.512Z,2.70
2019-03-29T13:22:58.915Z,1.40
2019-03-29T13:25:28.661Z,3.20
2019-03-29T13:27:59.532Z,2.00
2019-03-29T13:30:29.224Z,3.30
2019-03-29T13:32:58.635Z,1.80
2019-03-29T13:35:28.075Z,1.40
2019-03-29T13:37:57.540Z,3.30
2019-03-29T13:40:26.997Z,2.30
2019-03-29T13:42:56.509Z,1.90
2019-03-29T13:45:27.874Z,3.30
2019-03-29T13:47:57.170Z,4.20
2019-03-29T13:50:26.617Z,3.50
2019-03-29T13:52:56.194Z,1.00
2019-03-29T13:55:25.468Z,1.00
2019-03-29T13:57:54.747Z,1.00
2019-03-29T14:00:24.127Z,1.00
2019-03-29T14:02:53.547Z,1.00
2019-03-29T14:05:22.799Z,1.40
2019-03-29T14:07:52.073Z,1.00
2019-03-29T14:10:21.532Z,1.00
2019-03-29T14:12:51.077Z,1.00
2019-03-29T14:15:20.525Z,1.00
2019-03-29T14:17:50.021Z,1.00
2019-03-29T14:20:30.071Z,1.00
2019-03-29T14:22:59.393Z,1.00
2019-03-29T14:25:28.795Z,1.00
2019-03-29T14:27:58.215Z,1.00
2019-03-29T14:30:27.458Z,1.00
2019-03-29T14:32:56.815Z,2.30
2019-03-29T14:35:26.348Z,4.30
2019-03-29T14:37:55.922Z,9.00
2019-03-29T14:40:25.644Z,9.40
2019-03-29T14:42:54.964Z,9.50
2019-03-29T14:45:24.304Z,11.30
2019-03-29T14:47:53.555Z,11.00
2019-03-29T14:50:23.148Z,12.70
2019-03-29T14:52:52.458Z,14.40
2019-03-29T14:55:21.987Z,14.50
2019-03-29T14:57:51.336Z,14.70
2019-03-29T15:00:35.806Z,18.70
2019-03-29T15:03:07.176Z,21.00
2019-03-29T15:05:36.458Z,19.60
2019-03-29T15:08:06.122Z,17.60
2019-03-29T15:10:35.519Z,20.60
2019-03-29T15:13:05.015Z,23.60
2019-03-29T15:15:34.532Z,20.90
2019-03-29T15:18:04.003Z,22.20
2019-03-29T15:20:33.471Z,22.80
2019-03-29T15:23:03.003Z,20.40
2019-03-29T15:25:32.682Z,23.60
2019-03-29T15:28:02.000Z,25.30
2019-03-29T15:30:31.523Z,23.90
2019-03-29T15:33:01.080Z,22.30
2019-03-29T15:35:30.411Z,22.60
2019-03-29T15:37:59.934Z,21.80
2019-03-29T15:40:29.242Z,20.50
2019-03-29T15:42:58.672Z,21.20
2019-03-29T15:45:28.199Z,21.90
2019-03-29T15:47:57.509Z,20.80
2019-03-29T15:50:26.921Z,23.90
2019-03-29T15:52:56.231Z,23.20
2019-03-29T15:55:25.868Z,21.50
2019-03-29T15:57:55.200Z,21.90
2019-03-29T16:00:24.642Z,21.70
2019-03-29T16:02:53.946Z,24.30
2019-03-29T16:05:23.447Z,23.50
2019-03-29T16:07:52.783Z,22.00
2019-03-29T16:10:22.246Z,21.10
2019-03-29T16:12:51.560Z,26.80
2019-03-29T16:15:33.890Z,24.40
2019-03-29T16:17:52.337Z,25.50
2019-03-29T16:20:21.798Z,24.30
2019-03-29T16:22:51.170Z,23.90
2019-03-29T16:25:20.660Z,25.10
2019-03-29T16:27:50.059Z,23.40
2019-03-29T16:30:19.760Z,23.70
2019-03-29T16:32:49.090Z,25.10
2019-03-29T16:35:18.410Z,26.50
2019-03-29T16:37:56.950Z,25.20
2019-03-29T16:40:19.173Z,24.80
2019-03-29T16:42:48.802Z,27.20
2019-03-29T16:45:18.397Z,26.30
2019-03-29T16:47:48.168Z,24.90
2019-03-29T16:50:17.903Z,25.80
2019-03-29T16:52:47.241Z,26.10
2019-03-29T16:55:16.690Z,26.80
2019-03-29T16:57:46.403Z,27.10
2019-03-29T17:00:15.851Z,28.50
2019-03-29T17:02:45.212Z,29.10
2019-03-29T17:05:14.683Z,28.30
2019-03-29T17:07:46.153Z,29.00
2019-03-29T17:10:18.612Z,29.70
2019-03-29T17:12:48.020Z,30.10
2019-03-29T17:15:17.501Z,31.50
2019-03-29T17:17:49.945Z,34.40
2019-03-29T17:20:23.907Z,34.30
2019-03-29T17:22:53.576Z,35.60
2019-03-29T17:25:22.964Z,41.30
2019-03-29T17:27:52.409Z,40.60
2019-03-29T17:30:54.742Z,44.70
2019-03-29T17:33:24.133Z,44.20
2019-03-29T17:35:55.666Z,47.80
2019-03-29T17:38:24.960Z,50.50
2019-03-29T17:40:54.611Z,53.10
2019-03-29T17:43:23.933Z,51.70
2019-03-29T17:45:53.290Z,55.20
2019-03-29T17:48:22.899Z,57.50
2019-03-29T17:50:53.581Z,56.60
2019-03-29T17:53:23.139Z,58.20
2019-03-29T17:55:53.743Z,61.40
2019-03-29T17:58:23.340Z,64.90
2019-03-29T18:00:52.673Z,69.20
2019-03-29T18:03:22.039Z,69.70
2019-03-29T18:05:54.103Z,69.90
2019-03-29T18:08:23.510Z,71.70
2019-03-29T18:10:52.994Z,72.20
2019-03-29T18:13:22.279Z,71.30
2019-03-29T18:15:51.915Z,71.60
2019-03-29T18:18:21.742Z,73.70
2019-03-29T18:20:51.170Z,73.90
2019-03-29T18:23:21.169Z,74.80
2019-03-29T18:25:50.590Z,77.60
2019-03-29T18:28:22.170Z,81.70
2019-03-29T18:30:52.156Z,82.70
2019-03-29T18:33:22.350Z,83.20
2019-03-29T18:35:52.468Z,84.20
2019-03-29T18:38:22.396Z,83.40
2019-03-29T18:40:51.835Z,84.10
2019-03-29T18:43:21.737Z,85.60
2019-03-29T18:45:51.819Z,87.00
2019-03-29T18:48:21.617Z,88.00
2019-03-29T18:50:51.069Z,89.60
2019-03-29T18:53:20.577Z,90.60
2019-03-29T18:55:50.127Z,91.60
2019-03-29T18:58:19.495Z,92.30
2019-03-29T19:00:48.809Z,92.40
2019-03-29T19:03:20.059Z,92.60
2019-03-29T19:05:49.410Z,93.10
2019-03-29T19:08:18.850Z,93.40
2019-03-29T19:10:48.467Z,93.70
2019-03-29T19:13:17.969Z,93.10
2019-03-29T19:15:47.370Z,93.70
2019-03-29T19:18:16.769Z,94.50
2019-03-29T19:20:48.584Z,95.60
2019-03-29T19:23:18.156Z,96.70
2019-03-29T19:25:47.587Z,97.00
2019-03-29T19:28:17.009Z,96.80
2019-03-29T19:30:46.367Z,96.40
2019-03-29T19:33:16.006Z,97.00
2019-03-29T19:35:45.591Z,98.30
2019-03-29T19:38:21.190Z,98.50
2019-03-29T19:40:50.819Z,98.30
2019-03-29T19:43:21.714Z,98.90
2019-03-29T19:45:51.260Z,98.10
2019-03-29T19:48:20.534Z,97.20
2019-03-29T19:50:52.046Z,97.10
2019-03-29T19:53:21.347Z,97.50
2019-03-29T19:55:50.690Z,98.00
2019-03-29T19:58:20.395Z,98.00
2019-03-29T20:00:49.930Z,98.00
2019-03-29T20:03:19.658Z,97.90
2019-03-29T20:05:49.235Z,97.90
2019-03-29T20:08:19.335Z,97.90
2019-03-29T20:10:48.861Z,98.00
2019-03-29T20:13:18.316Z,97.40
2019-03-29T20:15:48.366Z,97.00
2019-03-29T20:18:17.733Z,97.40
2019-03-29T20:20:47.206Z,98.10
2019-03-29T20:23:16.588Z,98.70
2019-03-29T20:25:46.077Z,99.50
2019-03-29T20:28:15.461Z,99.90
2019-03-29T20:30:44.804Z,99.90
2019-03-29T20:33:14.360Z,99.90
2019-03-29T20:35:43.959Z,99.90
2019-03-29T20:38:13.400Z,99.90
2019-03-29T20:40:42.993Z,99.90
2019-03-29T20:43:12.439Z,99.90
2019-03-29T20:45:41.948Z,99.90
2019-03-29T20:48:11.662Z,99.90
2019-03-29T20:50:41.105Z,99.90
2019-03-29T20:53:10.539Z,99.90
2019-03-29T20:55:40.260Z,99.90
2019-03-29T20:58:09.724Z,99.90
2019-03-29T21:00:39.112Z,99.90
2019-03-29T21:03:08.579Z,99.90
2019-03-29T21:05:38.010Z,99.90
2019-03-29T21:08:07.441Z,99.90
2019-03-29T21:10:37.167Z,99.90
2019-03-29T21:13:07.291Z,99.90
2019-03-29T21:15:36.807Z,99.90
2019-03-29T21:18:06.215Z,99.90
2019-03-29T21:20:35.883Z,99.90
2019-03-29T21:23:05.424Z,99.90
2019-03-29T21:25:35.168Z,99.90
2019-03-29T21:28:04.646Z,99.90
2019-03-29T21:30:34.573Z,99.90
2019-03-29T21:33:04.100Z,99.90
2019-03-29T21:35:33.891Z,99.90
2019-03-29T21:38:03.639Z,99.90
2019-03-29T21:40:33.141Z,99.90
2019-03-29T21:43:02.571Z,99.90
2019-03-29T21:45:32.135Z,99.90
2019-03-29T21:48:17.327Z,99.90
2019-03-29T21:50:32.981Z,99.90
2019-03-29T21:53:02.554Z,99.90
2019-03-29T21:55:32.126Z,99.90
2019-03-29T21:58:01.776Z,99.90
2019-03-29T22:00:31.218Z,99.90
2019-03-29T22:03:01.220Z,99.90
2019-03-29T22:05:30.994Z,99.90
2019-03-29T22:08:00.474Z,99.90
2019-03-29T22:10:30.042Z,99.90
2019-03-29T22:12:59.651Z,99.90
2019-03-29T22:15:29.186Z,99.90
2019-03-29T22:17:58.596Z,99.90
2019-03-29T22:20:28.147Z,99.90
2019-03-29T22:22:57.649Z,99.90
2019-03-29T22:25:27.536Z,99.90
2019-03-29T22:27:56.970Z,99.90
2019-03-29T22:30:26.563Z,99.90
2019-03-29T22:32:56.123Z,99.90
2019-03-29T22:35:25.526Z,99.90
2019-03-29T22:37:55.059Z,99.90
2019-03-29T22:40:24.493Z,99.90
2019-03-29T22:42:53.946Z,99.90
2019-03-29T22:45:23.307Z,99.90
2019-03-29T22:47:53.664Z,99.90
2019-03-29T22:50:23.323Z,99.90
2019-03-29T22:52:54.516Z,99.90
2019-03-29T22:55:24.185Z,99.90
2019-03-29T22:57:53.555Z,99.90
2019-03-29T23:00:35.418Z,99.90
2019-03-29T23:03:05.895Z,99.90
2019-03-29T23:05:35.873Z,99.90
2019-03-29T23:08:05.942Z,99.90
2019-03-29T23:10:35.591Z,99.90
2019-03-29T23:13:04.992Z,99.90
2019-03-29T23:15:34.547Z,99.90
2019-03-29T23:18:04.064Z,99.90
2019-03-29T23:20:33.846Z,99.90
2019-03-29T23:23:03.433Z,99.90
2019-03-29T23:25:33.122Z,99.90
2019-03-29T23:28:02.652Z,99.90
2019-03-29T23:30:32.190Z,99.90
2019-03-29T23:33:01.620Z,99.90
2019-03-29T23:35:30.958Z,99.90
2019-03-29T23:38:00.547Z,99.90
2019-03-29T23:40:30.123Z,99.90
2019-03-29T23:42:59.613Z,99.90
2019-03-29T23:45:29.060Z,99.90
2019-03-29T23:47:58.641Z,99.90
2019-03-29T23:50:28.407Z,99.90
2019-03-29T23:52:58.109Z,99.90
2019-03-29T23:55:27.544Z,99.90
2019-03-29T23:57:57.243Z,99.90
